No particular awareness of the weather is required.    There are no Weather-warnings


Meteo18 Weather Cam more information Meteo18 Weather Cam


Thunder radar more information blitzortung!


Rain radar more information rain snow radar


Visit our other weather sites:

Template documentation
and downloads

And another site



Weather Underground History page Text

Daily Summary for March 17, 2016 Units:  Metric    English   Both
« Previous Day
Next Day »
Daily Weekly Monthly Yearly Custom
  High: Low: Average:
Temperature: 14.6 °C -0.3 °C 6.5 °C
Dew Point: 5.7 °C -1.0 °C 2.5 °C
Humidity: 97 % 49 % 78 %
Wind Speed: 8.0 km/h 0.0 km/h 0.6 km/h
Wind Gust: 11.3 km/h - -
Wind:- - East
Pressure: 1024.9 hPa 1020.9 hPa -
Precipitation: 0.0 mm    
Historical Graphs
 
 
Tabular Data for March 17, 2016
Time Temperature Dew Point Pressure Wind Wind Speed Wind Gust Humidity Rainfall Rate (Hourly)
00:02 2.2 °C 1.3 °C 1020.9 hPa SE 1.6 km/h 3.2 km/h 94 % 0.0 mm
00:07 2.2 °C 1.3 °C 1020.9 hPa Calm   3.2 km/h 94 % 0.0 mm
00:12 2.2 °C 1.3 °C 1020.9 hPa Calm   1.6 km/h 94 % 0.0 mm
00:17 2.2 °C 1.3 °C 1020.9 hPa Calm   1.6 km/h 94 % 0.0 mm
00:22 2.2 °C 1.3 °C 1020.9 hPa Calm   3.2 km/h 94 % 0.0 mm
00:27 2.2 °C 1.3 °C 1020.9 hPa Calm   4.8 km/h 94 % 0.0 mm
00:32 2.2 °C 1.3 °C 1020.9 hPa Calm   4.8 km/h 94 % 0.0 mm
00:37 2.1 °C 1.2 °C 1020.9 hPa Calm   4.8 km/h 94 % 0.0 mm
00:42 2.1 °C 1.2 °C 1020.9 hPa Calm   4.8 km/h 94 % 0.0 mm
00:52 1.9 °C 1.0 °C 1020.9 hPa Calm   1.6 km/h 94 % 0.0 mm
00:57 1.8 °C 0.9 °C 1020.9 hPa Calm   1.6 km/h 94 % 0.0 mm
01:02 1.7 °C 0.8 °C 1020.9 hPa Calm   1.6 km/h 94 % 0.0 mm
01:07 1.6 °C 0.7 °C 1020.9 hPa Calm   1.6 km/h 94 % 0.0 mm
01:12 1.6 °C 0.7 °C 1020.9 hPa Calm   1.6 km/h 94 % 0.0 mm
01:17 1.6 °C 0.7 °C 1020.9 hPa Calm   1.6 km/h 94 % 0.0 mm
01:22 1.6 °C 0.9 °C 1020.9 hPa Calm   1.6 km/h 95 % 0.0 mm
01:27 1.7 °C 1.0 °C 1021.2 hPa Calm     95 % 0.0 mm
01:32 1.8 °C 1.1 °C 1021.2 hPa Calm   1.6 km/h 95 % 0.0 mm
01:37 1.8 °C 1.1 °C 1021.2 hPa Calm   1.6 km/h 95 % 0.0 mm
01:47 1.8 °C 1.1 °C 1021.6 hPa Calm     95 % 0.0 mm
01:52 1.8 °C 1.1 °C 1021.2 hPa Calm     95 % 0.0 mm
01:57 1.8 °C 1.1 °C 1021.2 hPa Calm     95 % 0.0 mm
02:02 1.8 °C 1.1 °C 1021.2 hPa Calm     95 % 0.0 mm
02:07 1.9 °C 1.2 °C 1021.6 hPa Calm     95 % 0.0 mm
02:12 1.9 °C 1.2 °C 1021.2 hPa Calm   1.6 km/h 95 % 0.0 mm
02:22 1.8 °C 0.9 °C 1021.6 hPa Calm   3.2 km/h 94 % 0.0 mm
02:27 1.8 °C 0.9 °C 1021.6 hPa Calm   3.2 km/h 94 % 0.0 mm
02:32 1.8 °C 0.9 °C 1021.6 hPa Calm   1.6 km/h 94 % 0.0 mm
02:37 1.7 °C 0.8 °C 1021.6 hPa Calm   1.6 km/h 94 % 0.0 mm
02:42 1.6 °C 0.7 °C 1021.6 hPa Calm   1.6 km/h 94 % 0.0 mm
02:47 1.7 °C 0.8 °C 1021.6 hPa NNE 1.6 km/h 1.6 km/h 94 % 0.0 mm
02:52 1.7 °C 0.8 °C 1021.6 hPa Calm   1.6 km/h 94 % 0.0 mm
02:57 1.7 °C 0.8 °C 1021.6 hPa Calm   1.6 km/h 94 % 0.0 mm
03:02 1.7 °C 0.8 °C 1021.6 hPa Calm   1.6 km/h 94 % 0.0 mm
03:12 1.6 °C 0.7 °C 1021.6 hPa Calm     94 % 0.0 mm
03:17 1.6 °C 0.9 °C 1021.6 hPa Calm     95 % 0.0 mm
03:22 1.7 °C 1.0 °C 1021.6 hPa Calm     95 % 0.0 mm
03:27 1.6 °C 0.7 °C 1021.6 hPa Calm     94 % 0.0 mm
03:32 1.5 °C 0.6 °C 1021.6 hPa Calm     94 % 0.0 mm
03:37 1.4 °C 0.5 °C 1021.6 hPa Calm     94 % 0.0 mm
03:47 1.2 °C 0.3 °C 1021.9 hPa Calm     94 % 0.0 mm
03:52 1.2 °C 0.5 °C 1021.9 hPa Calm     95 % 0.0 mm
03:57 1.2 °C 0.5 °C 1021.9 hPa Calm     95 % 0.0 mm
04:02 1.2 °C 0.5 °C 1021.9 hPa Calm     95 % 0.0 mm
04:07 1.2 °C 0.5 °C 1021.9 hPa Calm     95 % 0.0 mm
04:12 1.2 °C 0.5 °C 1021.9 hPa Calm     95 % 0.0 mm
04:17 1.2 °C 0.5 °C 1021.9 hPa Calm   1.6 km/h 95 % 0.0 mm
04:22 1.2 °C 0.5 °C 1021.9 hPa Calm   1.6 km/h 95 % 0.0 mm
04:27 1.2 °C 0.5 °C 1021.9 hPa Calm   1.6 km/h 95 % 0.0 mm
04:32 1.2 °C 0.5 °C 1021.9 hPa Calm     95 % 0.0 mm
04:37 1.3 °C 0.7 °C 1022.2 hPa Calm   1.6 km/h 96 % 0.0 mm
04:42 1.4 °C 0.8 °C 1022.2 hPa Calm   1.6 km/h 96 % 0.0 mm
04:47 1.4 °C 0.8 °C 1022.2 hPa Calm   1.6 km/h 96 % 0.0 mm
04:52 1.4 °C 0.7 °C 1022.2 hPa Calm   1.6 km/h 95 % 0.0 mm
04:57 1.4 °C 0.7 °C 1022.6 hPa Calm     95 % 0.0 mm
05:02 1.3 °C 0.6 °C 1022.6 hPa Calm     95 % 0.0 mm
05:12 1.2 °C 0.5 °C 1022.6 hPa Calm     95 % 0.0 mm
05:17 1.1 °C 0.4 °C 1022.6 hPa Calm     95 % 0.0 mm
05:22 0.9 °C 0.2 °C 1022.6 hPa Calm     95 % 0.0 mm
05:27 0.8 °C 0.1 °C 1022.6 hPa Calm   1.6 km/h 95 % 0.0 mm
05:32 0.8 °C 0.1 °C 1022.6 hPa Calm   1.6 km/h 95 % 0.0 mm
05:37 0.9 °C 0.2 °C 1022.6 hPa Calm     95 % 0.0 mm
05:42 0.9 °C 0.3 °C 1022.9 hPa Calm     96 % 0.0 mm
05:52 1.1 °C 0.5 °C 1022.9 hPa Calm     96 % 0.0 mm
06:02 1.1 °C 0.5 °C 1022.6 hPa Calm     96 % 0.0 mm
06:07 1.1 °C 0.5 °C 1022.6 hPa Calm     96 % 0.0 mm
06:12 1.1 °C 0.5 °C 1022.6 hPa Calm     96 % 0.0 mm
06:17 1.2 °C 0.6 °C 1022.6 hPa Calm   1.6 km/h 96 % 0.0 mm
06:22 1.2 °C 0.6 °C 1022.6 hPa Calm   1.6 km/h 96 % 0.0 mm
06:32 0.9 °C 0.2 °C 1022.9 hPa Calm   1.6 km/h 95 % 0.0 mm
06:37 0.8 °C 0.1 °C 1022.9 hPa Calm     95 % 0.0 mm
06:42 0.6 °C -0.1 °C 1022.9 hPa Calm     95 % 0.0 mm
06:47 0.4 °C -0.3 °C 1022.9 hPa Calm     95 % 0.0 mm
06:52 0.3 °C -0.4 °C 1022.9 hPa Calm     95 % 0.0 mm
06:57 0.3 °C -0.4 °C 1022.6 hPa Calm     95 % 0.0 mm
07:02 0.3 °C -0.3 °C 1022.6 hPa Calm     96 % 0.0 mm
07:12 0.0 °C -0.7 °C 1022.9 hPa Calm     95 % 0.0 mm
07:17 -0.2 °C -0.9 °C 1022.9 hPa Calm     95 % 0.0 mm
07:22 -0.3 °C -1.0 °C 1023.2 hPa Calm     95 % 0.0 mm
07:27 -0.3 °C -1.0 °C 1023.2 hPa Calm     95 % 0.0 mm
07:32 -0.3 °C -1.0 °C 1023.2 hPa Calm     95 % 0.0 mm
07:37 -0.3 °C -0.9 °C 1023.2 hPa Calm     96 % 0.0 mm
07:42 -0.3 °C -0.9 °C 1023.2 hPa Calm     96 % 0.0 mm
07:47 -0.1 °C -0.7 °C 1023.2 hPa Calm     96 % 0.0 mm
07:52 0.1 °C -0.5 °C 1023.2 hPa Calm     96 % 0.0 mm
07:57 0.2 °C -0.4 °C 1023.2 hPa Calm     96 % 0.0 mm
08:02 0.3 °C -0.3 °C 1023.2 hPa Calm     96 % 0.0 mm
08:12 0.6 °C 0.0 °C 1023.6 hPa Calm     96 % 0.0 mm
08:17 0.9 °C 0.5 °C 1023.6 hPa Calm   1.6 km/h 97 % 0.0 mm
08:22 1.1 °C 0.7 °C 1023.6 hPa Calm   1.6 km/h 97 % 0.0 mm
08:27 1.3 °C 0.7 °C 1023.9 hPa Calm   1.6 km/h 96 % 0.0 mm
08:32 1.5 °C 0.9 °C 1023.9 hPa Calm   1.6 km/h 96 % 0.0 mm
08:42 1.9 °C 1.2 °C 1023.9 hPa Calm   3.2 km/h 95 % 0.0 mm
08:47 2.4 °C 1.5 °C 1023.9 hPa Calm   3.2 km/h 94 % 0.0 mm
08:52 2.9 °C 1.9 °C 1023.9 hPa East 1.6 km/h 3.2 km/h 93 % 0.0 mm
09:02 3.7 °C 2.2 °C 1024.3 hPa Calm   3.2 km/h 90 % 0.0 mm
09:07 3.9 °C 2.3 °C 1024.3 hPa North 1.6 km/h 4.8 km/h 89 % 0.0 mm
09:12 4.2 °C 2.2 °C 1024.3 hPa Calm   4.8 km/h 87 % 0.0 mm
09:17 4.6 °C 2.3 °C 1024.6 hPa Calm   4.8 km/h 85 % 0.0 mm
09:22 4.8 °C 2.7 °C 1024.6 hPa Calm   4.8 km/h 86 % 0.0 mm
09:27 4.9 °C 2.6 °C 1024.6 hPa Calm   3.2 km/h 85 % 0.0 mm
09:32 5.4 °C 2.9 °C 1024.6 hPa NNE 1.6 km/h 3.2 km/h 84 % 0.0 mm
09:37 5.4 °C 2.7 °C 1024.6 hPa Calm   3.2 km/h 83 % 0.0 mm
09:42 5.6 °C 2.8 °C 1024.6 hPa Calm   3.2 km/h 82 % 0.0 mm
09:47 5.9 °C 2.7 °C 1024.6 hPa Calm   6.4 km/h 80 % 0.0 mm
09:57 6.7 °C 3.5 °C 1024.9 hPa Calm   4.8 km/h 80 % 0.0 mm
10:02 6.9 °C 3.1 °C 1024.9 hPa NE 1.6 km/h 4.8 km/h 77 % 0.0 mm
10:07 7.2 °C 3.8 °C 1024.9 hPa NE 3.2 km/h 4.8 km/h 79 % 0.0 mm
10:17 7.3 °C 3.5 °C 1024.9 hPa NNE 3.2 km/h 4.8 km/h 77 % 0.0 mm
10:22 7.4 °C 3.6 °C 1024.9 hPa Calm   4.8 km/h 77 % 0.0 mm
10:27 7.8 °C 4.6 °C 1024.9 hPa NE 1.6 km/h 4.8 km/h 80 % 0.0 mm
10:32 8.0 °C 4.0 °C 1024.9 hPa NNW 1.6 km/h 6.4 km/h 76 % 0.0 mm
10:37 8.2 °C 4.0 °C 1024.9 hPa Calm   6.4 km/h 75 % 0.0 mm
10:42 7.9 °C 3.6 °C 1024.9 hPa NNE 1.6 km/h 6.4 km/h 74 % 0.0 mm
10:47 8.1 °C 4.1 °C 1024.9 hPa Calm   9.7 km/h 76 % 0.0 mm
10:52 8.3 °C 4.1 °C 1024.9 hPa Calm   9.7 km/h 75 % 0.0 mm
10:57 8.7 °C 4.3 °C 1024.9 hPa NE 3.2 km/h 4.8 km/h 74 % 0.0 mm
11:02 8.7 °C 4.3 °C 1024.9 hPa Calm   6.4 km/h 74 % 0.0 mm
11:07 9.2 °C 4.8 °C 1024.6 hPa Calm   6.4 km/h 74 % 0.0 mm
11:12 9.4 °C 4.8 °C 1024.6 hPa NNE 3.2 km/h 6.4 km/h 73 % 0.0 mm
11:17 9.3 °C 3.9 °C 1024.9 hPa Calm   6.4 km/h 69 % 0.0 mm
11:22 9.5 °C 4.3 °C 1024.9 hPa Calm   6.4 km/h 70 % 0.0 mm
11:27 10.2 °C 5.0 °C 1024.6 hPa Calm   6.4 km/h 70 % 0.0 mm
11:32 10.5 °C 4.0 °C 1024.6 hPa Calm   1.6 km/h 64 % 0.0 mm
11:37 10.7 °C 3.7 °C 1024.6 hPa Calm   1.6 km/h 62 % 0.0 mm
11:42 10.8 °C 4.5 °C 1024.6 hPa Calm   1.6 km/h 65 % 0.0 mm
11:47 11.2 °C 4.4 °C 1024.6 hPa SE 1.6 km/h 3.2 km/h 63 % 0.0 mm
11:52 10.8 °C 4.7 °C 1024.6 hPa NE 1.6 km/h 3.2 km/h 66 % 0.0 mm
11:57 10.6 °C 4.3 °C 1024.6 hPa Calm   6.4 km/h 65 % 0.0 mm
12:02 10.8 °C 4.5 °C 1024.6 hPa Calm   6.4 km/h 65 % 0.0 mm
12:07 10.9 °C 4.8 °C 1024.6 hPa Calm   6.4 km/h 66 % 0.0 mm
12:12 11.3 °C 4.5 °C 1024.6 hPa Calm   4.8 km/h 63 % 0.0 mm
12:17 11.3 °C 5.0 °C 1024.6 hPa ENE 1.6 km/h 4.8 km/h 65 % 0.0 mm
12:22 11.0 °C 4.5 °C 1024.6 hPa East 1.6 km/h 3.2 km/h 64 % 0.0 mm
12:27 11.3 °C 4.5 °C 1024.3 hPa Calm   4.8 km/h 63 % 0.0 mm
12:32 11.3 °C 4.1 °C 1024.3 hPa NNE 3.2 km/h 4.8 km/h 61 % 0.0 mm
12:37 11.1 °C 4.3 °C 1024.3 hPa NNE 8.0 km/h 8.0 km/h 63 % 0.0 mm
12:42 11.1 °C 4.5 °C 1024.3 hPa NNE 3.2 km/h 9.7 km/h 64 % 0.0 mm
12:47 11.1 °C 4.8 °C 1024.3 hPa NW 3.2 km/h 11.3 km/h 65 % 0.0 mm
12:52 11.6 °C 5.2 °C 1024.3 hPa North 4.8 km/h 11.3 km/h 65 % 0.0 mm
12:57 11.5 °C 4.2 °C 1024.3 hPa North 1.6 km/h 4.8 km/h 61 % 0.0 mm
13:02 11.5 °C 4.5 °C 1024.3 hPa Calm   8.0 km/h 62 % 0.0 mm
13:07 11.9 °C 4.6 °C 1024.3 hPa Calm   8.0 km/h 61 % 0.0 mm
13:12 12.2 °C 5.1 °C 1024.3 hPa Calm   8.0 km/h 62 % 0.0 mm
13:17 12.2 °C 4.2 °C 1023.9 hPa Calm   4.8 km/h 58 % 0.0 mm
13:22 12.1 °C 4.6 °C 1023.9 hPa Calm   6.4 km/h 60 % 0.0 mm
13:32 12.3 °C 5.0 °C 1023.9 hPa Calm   4.8 km/h 61 % 0.0 mm
13:37 12.6 °C 4.8 °C 1023.9 hPa East 1.6 km/h 4.8 km/h 59 % 0.0 mm
13:42 12.9 °C 4.6 °C 1023.6 hPa Calm   4.8 km/h 57 % 0.0 mm
13:47 13.1 °C 4.8 °C 1023.6 hPa NNE 3.2 km/h 4.8 km/h 57 % 0.0 mm
13:52 13.1 °C 4.3 °C 1023.6 hPa SE 1.6 km/h 4.8 km/h 55 % 0.0 mm
13:57 12.9 °C 3.8 °C 1023.6 hPa NE 1.6 km/h 4.8 km/h 54 % 0.0 mm
14:02 12.9 °C 4.1 °C 1023.6 hPa NNE 1.6 km/h 6.4 km/h 55 % 0.0 mm
14:07 12.9 °C 4.1 °C 1023.2 hPa NE 1.6 km/h 6.4 km/h 55 % 0.0 mm
14:12 13.2 °C 4.6 °C 1023.2 hPa Calm   6.4 km/h 56 % 0.0 mm
14:17 13.3 °C 4.7 °C 1023.2 hPa Calm   6.4 km/h 56 % 0.0 mm
14:22 13.6 °C 4.2 °C 1023.2 hPa ESE 3.2 km/h 6.4 km/h 53 % 0.0 mm
14:27 13.4 °C 4.5 °C 1023.2 hPa ESE 3.2 km/h 8.0 km/h 55 % 0.0 mm
14:32 13.6 °C 4.7 °C 1023.2 hPa Calm   8.0 km/h 55 % 0.0 mm
14:37 13.7 °C 4.8 °C 1023.2 hPa East 1.6 km/h 8.0 km/h 55 % 0.0 mm
14:47 13.2 °C 3.8 °C 1022.9 hPa NE 3.2 km/h 8.0 km/h 53 % 0.0 mm
14:52 13.3 °C 3.9 °C 1022.9 hPa WNW 1.6 km/h 8.0 km/h 53 % 0.0 mm
14:57 13.5 °C 4.4 °C 1022.9 hPa ESE 3.2 km/h 8.0 km/h 54 % 0.0 mm
15:02 13.6 °C 3.4 °C 1022.9 hPa Calm   4.8 km/h 50 % 0.0 mm
15:07 13.5 °C 3.0 °C 1022.9 hPa Calm   6.4 km/h 49 % 0.0 mm
15:12 13.6 °C 4.7 °C 1022.9 hPa NE 6.4 km/h 6.4 km/h 55 % 0.0 mm
15:17 13.5 °C 3.6 °C 1022.9 hPa SE 3.2 km/h 11.3 km/h 51 % 0.0 mm
15:22 13.5 °C 4.4 °C 1022.9 hPa Calm   11.3 km/h 54 % 0.0 mm
15:27 13.5 °C 3.8 °C 1022.9 hPa Calm   11.3 km/h 52 % 0.0 mm
15:32 13.7 °C 3.7 °C 1022.9 hPa NE 1.6 km/h 6.4 km/h 51 % 0.0 mm
15:37 13.8 °C 3.8 °C 1022.6 hPa West 1.6 km/h 6.4 km/h 51 % 0.0 mm
15:42 14.0 °C 3.5 °C 1022.6 hPa Calm   4.8 km/h 49 % 0.0 mm
15:47 14.0 °C 4.0 °C 1022.6 hPa Calm   3.2 km/h 51 % 0.0 mm
15:52 14.0 °C 3.7 °C 1022.6 hPa NE 1.6 km/h 3.2 km/h 50 % 0.0 mm
15:57 13.8 °C 4.4 °C 1022.6 hPa Calm   4.8 km/h 53 % 0.0 mm
16:02 14.0 °C 4.3 °C 1022.6 hPa Calm   4.8 km/h 52 % 0.0 mm
16:07 14.2 °C 4.2 °C 1022.6 hPa NE 3.2 km/h 4.8 km/h 51 % 0.0 mm
16:12 13.8 °C 3.6 °C 1022.2 hPa Calm   6.4 km/h 50 % 0.0 mm
16:17 13.9 °C 3.4 °C 1022.2 hPa Calm   6.4 km/h 49 % 0.0 mm
16:22 14.1 °C 4.1 °C 1022.2 hPa Calm   6.4 km/h 51 % 0.0 mm
16:27 14.1 °C 3.5 °C 1022.2 hPa Calm     49 % 0.0 mm
16:32 14.2 °C 3.9 °C 1022.2 hPa East 4.8 km/h 4.8 km/h 50 % 0.0 mm
16:37 14.3 °C 4.0 °C 1022.2 hPa North 3.2 km/h 4.8 km/h 50 % 0.0 mm
16:42 14.5 °C 3.9 °C 1022.2 hPa Calm   4.8 km/h 49 % 0.0 mm
16:47 14.6 °C 4.6 °C 1022.2 hPa Calm   4.8 km/h 51 % 0.0 mm
16:52 14.2 °C 4.5 °C 1022.2 hPa Calm   6.4 km/h 52 % 0.0 mm
16:57 13.9 °C 4.7 °C 1022.2 hPa Calm   8.0 km/h 54 % 0.0 mm
17:02 13.9 °C 4.7 °C 1022.2 hPa Calm   8.0 km/h 54 % 0.0 mm
17:07 13.9 °C 4.7 °C 1021.9 hPa Calm   8.0 km/h 54 % 0.0 mm
17:12 13.9 °C 4.7 °C 1021.9 hPa Calm   8.0 km/h 54 % 0.0 mm
17:17 13.9 °C 3.6 °C 1021.9 hPa Calm   4.8 km/h 50 % 0.0 mm
17:22 13.8 °C 4.1 °C 1021.9 hPa Calm   4.8 km/h 52 % 0.0 mm
17:27 14.1 °C 4.7 °C 1021.9 hPa Calm   3.2 km/h 53 % 0.0 mm
17:37 13.1 °C 4.8 °C 1021.9 hPa NE 3.2 km/h 6.4 km/h 57 % 0.0 mm
17:42 12.8 °C 5.7 °C 1021.9 hPa Calm   6.4 km/h 62 % 0.0 mm
17:52 12.2 °C 5.1 °C 1021.9 hPa Calm   4.8 km/h 62 % 0.0 mm
17:57 12.1 °C 5.3 °C 1021.9 hPa Calm   3.2 km/h 63 % 0.0 mm
18:02 11.9 °C 4.8 °C 1021.9 hPa NE 3.2 km/h 3.2 km/h 62 % 0.0 mm
18:12 11.7 °C 5.1 °C 1021.9 hPa Calm   3.2 km/h 64 % 0.0 mm
18:17 11.3 °C 5.4 °C 1021.9 hPa Calm   3.2 km/h 67 % 0.0 mm
18:22 10.9 °C 5.4 °C 1021.9 hPa Calm   1.6 km/h 69 % 0.0 mm
18:32 10.5 °C 4.8 °C 1021.9 hPa Calm   1.6 km/h 68 % 0.0 mm
18:37 10.3 °C 4.4 °C 1021.9 hPa Calm   4.8 km/h 67 % 0.0 mm
18:42 10.1 °C 4.7 °C 1021.9 hPa Calm   4.8 km/h 69 % 0.0 mm
18:47 9.8 °C 4.6 °C 1022.2 hPa Calm   4.8 km/h 70 % 0.0 mm
18:57 9.3 °C 4.3 °C 1022.2 hPa NE 3.2 km/h 4.8 km/h 71 % 0.0 mm
19:02 9.3 °C 4.3 °C 1022.2 hPa East 1.6 km/h 6.4 km/h 71 % 0.0 mm
19:07 9.2 °C 4.2 °C 1022.2 hPa NE 1.6 km/h 6.4 km/h 71 % 0.0 mm
19:12 8.9 °C 3.9 °C 1022.2 hPa NE 3.2 km/h 6.4 km/h 71 % 0.0 mm
19:22 8.7 °C 3.7 °C 1022.2 hPa Calm   4.8 km/h 71 % 0.0 mm
19:27 8.4 °C 3.8 °C 1022.2 hPa Calm   4.8 km/h 73 % 0.0 mm
19:32 8.1 °C 3.6 °C 1022.2 hPa NNE 3.2 km/h 3.2 km/h 73 % 0.0 mm
19:37 7.9 °C 3.6 °C 1022.2 hPa NE 3.2 km/h 4.8 km/h 74 % 0.0 mm
19:42 7.8 °C 3.5 °C 1022.2 hPa Calm   6.4 km/h 74 % 0.0 mm
19:47 7.6 °C 3.5 °C 1022.2 hPa Calm   6.4 km/h 75 % 0.0 mm
19:52 7.4 °C 3.3 °C 1022.6 hPa Calm   6.4 km/h 75 % 0.0 mm
19:57 7.4 °C 3.1 °C 1022.6 hPa Calm   1.6 km/h 74 % 0.0 mm
20:02 7.4 °C 3.1 °C 1022.6 hPa Calm   4.8 km/h 74 % 0.0 mm
20:07 7.4 °C 3.1 °C 1022.6 hPa Calm   4.8 km/h 74 % 0.0 mm
20:12 7.3 °C 3.2 °C 1022.6 hPa Calm   4.8 km/h 75 % 0.0 mm
20:17 7.1 °C 3.2 °C 1022.6 hPa NNE 1.6 km/h 3.2 km/h 76 % 0.0 mm
20:22 7.1 °C 3.2 °C 1022.6 hPa Calm   1.6 km/h 76 % 0.0 mm
20:27 7.1 °C 3.2 °C 1022.6 hPa Calm   4.8 km/h 76 % 0.0 mm
20:32 7.2 °C 3.3 °C 1022.6 hPa Calm   6.4 km/h 76 % 0.0 mm
20:37 7.2 °C 3.3 °C 1022.6 hPa NE 3.2 km/h 8.0 km/h 76 % 0.0 mm
20:42 6.9 °C 3.1 °C 1022.6 hPa NE 1.6 km/h 8.0 km/h 77 % 0.0 mm
20:47 6.9 °C 3.1 °C 1022.6 hPa NE 1.6 km/h 8.0 km/h 77 % 0.0 mm
20:52 6.8 °C 3.1 °C 1022.6 hPa Calm   4.8 km/h 77 % 0.0 mm
20:57 6.7 °C 3.1 °C 1022.6 hPa NE 1.6 km/h 4.8 km/h 78 % 0.0 mm
21:12 6.2 °C 2.8 °C 1022.6 hPa East 1.6 km/h 4.8 km/h 79 % 0.0 mm
21:17 6.2 °C 2.8 °C 1022.6 hPa Calm   4.8 km/h 79 % 0.0 mm
21:22 5.9 °C 2.7 °C 1022.9 hPa NE 1.6 km/h 4.8 km/h 80 % 0.0 mm
21:27 5.7 °C 2.7 °C 1022.9 hPa Calm   4.8 km/h 81 % 0.0 mm
21:32 5.5 °C 2.5 °C 1022.9 hPa ESE 1.6 km/h 3.2 km/h 81 % 0.0 mm
21:37 5.3 °C 2.3 °C 1022.9 hPa Calm   6.4 km/h 81 % 0.0 mm
21:42 5.3 °C 2.5 °C 1022.9 hPa ENE 1.6 km/h 6.4 km/h 82 % 0.0 mm
21:52 5.2 °C 2.4 °C 1022.9 hPa Calm   4.8 km/h 82 % 0.0 mm
22:02 4.9 °C 2.3 °C 1022.9 hPa East 1.6 km/h 3.2 km/h 83 % 0.0 mm
22:07 4.8 °C 2.2 °C 1022.9 hPa Calm   3.2 km/h 83 % 0.0 mm
22:12 4.9 °C 2.3 °C 1022.9 hPa Calm   4.8 km/h 83 % 0.0 mm
22:17 4.8 °C 2.2 °C 1022.6 hPa Calm   4.8 km/h 83 % 0.0 mm
22:22 4.6 °C 2.1 °C 1022.6 hPa NE 1.6 km/h 4.8 km/h 84 % 0.0 mm
22:27 4.6 °C 2.1 °C 1022.6 hPa Calm   4.8 km/h 84 % 0.0 mm
22:32 4.6 °C 2.0 °C 1022.9 hPa Calm   3.2 km/h 83 % 0.0 mm
22:37 4.5 °C 1.9 °C 1022.9 hPa Calm   3.2 km/h 83 % 0.0 mm
22:42 4.5 °C 2.0 °C 1022.9 hPa Calm   1.6 km/h 84 % 0.0 mm
22:47 4.7 °C 2.1 °C 1022.9 hPa Calm   1.6 km/h 83 % 0.0 mm
22:52 4.6 °C 2.0 °C 1022.9 hPa NE 1.6 km/h 1.6 km/h 83 % 0.0 mm
22:57 4.6 °C 2.0 °C 1022.9 hPa Calm   1.6 km/h 83 % 0.0 mm
23:02 4.5 °C 1.9 °C 1022.9 hPa NE 1.6 km/h 1.6 km/h 83 % 0.0 mm
23:07 4.4 °C 1.8 °C 1022.9 hPa Calm   1.6 km/h 83 % 0.0 mm
23:12 4.5 °C 2.0 °C 1022.6 hPa NE 1.6 km/h 3.2 km/h 84 % 0.0 mm
23:17 4.6 °C 1.8 °C 1022.6 hPa Calm   3.2 km/h 82 % 0.0 mm
23:22 4.3 °C 1.7 °C 1022.6 hPa ENE 1.6 km/h 3.2 km/h 83 % 0.0 mm
23:27 4.3 °C 1.8 °C 1022.6 hPa NE 1.6 km/h 3.2 km/h 84 % 0.0 mm
23:32 4.4 °C 1.8 °C 1022.6 hPa Calm   3.2 km/h 83 % 0.0 mm
23:37 4.4 °C 1.8 °C 1022.6 hPa Calm   3.2 km/h 83 % 0.0 mm
23:42 4.2 °C 1.6 °C 1022.6 hPa Calm   1.6 km/h 83 % 0.0 mm
23:47 4.1 °C 1.6 °C 1022.6 hPa Calm   1.6 km/h 84 % 0.0 mm
23:52 3.9 °C 1.4 °C 1022.6 hPa Calm   1.6 km/h 84 % 0.0 mm
23:57 3.7 °C 1.4 °C 1022.6 hPa NE 1.6 km/h 1.6 km/h 85 % 0.0 mm
Meteo18
Compliments of Weather Underground - 4 mb

Script developed by  Jim McMurry - jmcmurry@mwt.net Adapted for the template by  Wim van der Kuil - Leuven-Template.eu

You find our weather info also at:

European Weather Network

Weather Underground

Equipment we use:

Weather-station
Davis Vue

Weather-program
Meteohub

Weather-server
Raspberry PI 2 B+

Provider
1 and 1

Davis Vue

Meteohub

Raspberry PI 2 B+

1 and 1